Time;durP1;ratioP1;P1;durP2;ratioP2;P2;SDS_P1;SDS_P2;PMS_P1;PMS_P2;Temp;Humidity;BMP_temperature;BMP_pressure;BME280_temperature;BME280_humidity;BME280_pressure;Samples;Min_cycle;Max_cycle;Signal;HPM_P1;HPM_P2
2022/04/08 00:01:15;;;;;;;8.95;1.15;;;;;;;-145.70;100.00;64261.84;5022996;28;20106;-82
2022/04/08 00:03:40;;;;;;;2.10;0.88;;;;;;;-145.70;100.00;64261.84;5020530;28;20034;-81
2022/04/08 00:06:06;;;;;;;4.25;1.20;;;;;;;-145.70;100.00;64261.84;5022344;28;20142;-81
2022/04/08 00:08:31;;;;;;;9.02;1.90;;;;;;;-145.70;100.00;64261.84;5019393;28;20096;-81
2022/04/08 00:10:56;;;;;;;6.75;1.00;;;;;;;-145.70;100.00;64261.84;5022744;28;20500;-81
2022/04/08 00:13:22;;;;;;;6.43;1.23;;;;;;;-145.70;100.00;64261.84;5019770;28;21066;-82
2022/04/08 00:15:47;;;;;;;4.97;1.38;;;;;;;-145.70;100.00;64261.84;5020689;28;20064;-81
2022/04/08 00:18:12;;;;;;;6.90;1.40;;;;;;;-145.70;100.00;64261.84;5021217;28;20088;-81
2022/04/08 00:20:38;;;;;;;7.70;1.17;;;;;;;-145.70;100.00;64261.84;5021782;28;20049;-81
2022/04/08 00:23:04;;;;;;;5.70;1.50;;;;;;;-145.70;100.00;64261.84;5020020;28;20620;-82
2022/04/08 00:25:30;;;;;;;6.47;1.00;;;;;;;-145.70;100.00;64261.84;5020463;28;20109;-82
2022/04/08 00:27:55;;;;;;;5.45;1.50;;;;;;;-145.70;100.00;64261.84;5021840;28;20377;-81
2022/04/08 00:30:21;;;;;;;7.38;1.50;;;;;;;-145.70;100.00;64261.84;5021065;28;20053;-82
2022/04/08 00:32:47;;;;;;;9.85;1.90;;;;;;;-145.70;100.00;64261.84;5035049;28;20773;-82
2022/04/08 00:35:12;;;;;;;6.65;1.27;;;;;;;-145.70;100.00;64261.84;5020877;28;20977;-82
2022/04/08 00:37:39;;;;;;;8.27;1.55;;;;;;;-145.70;100.00;64261.84;5022506;28;20508;-83
2022/04/08 00:40:06;;;;;;;5.00;1.38;;;;;;;-145.70;100.00;64261.84;5024126;28;20046;-82
2022/04/08 00:42:32;;;;;;;7.70;1.55;;;;;;;-145.70;100.00;64261.84;5024854;28;21578;-83
2022/04/08 00:44:58;;;;;;;7.28;1.73;;;;;;;-145.70;100.00;64261.84;5026232;28;20152;-82
2022/04/08 00:47:23;;;;;;;4.78;2.08;;;;;;;-145.70;100.00;64261.84;5026606;28;20045;-82
2022/04/08 00:49:49;;;;;;;6.82;1.63;;;;;;;-145.70;100.00;64261.84;5025304;28;20382;-83
2022/04/08 00:52:15;;;;;;;5.15;2.10;;;;;;;-145.70;100.00;64261.84;5024180;28;20108;-82
2022/04/08 00:54:40;;;;;;;5.35;1.38;;;;;;;-145.70;100.00;64261.84;5026388;28;20048;-82
2022/04/08 00:57:06;;;;;;;3.13;1.35;;;;;;;-145.70;100.00;64261.84;5025744;28;20049;-83
2022/04/08 00:59:32;;;;;;;1.25;0.75;;;;;;;-145.70;100.00;64261.84;5025461;28;20137;-81
2022/04/08 01:01:58;;;;;;;3.55;0.90;;;;;;;-145.70;100.00;64261.84;5020823;28;20041;-82
2022/04/08 01:04:25;;;;;;;2.95;1.00;;;;;;;-145.70;100.00;64261.84;5025053;28;20049;-81
2022/04/08 01:06:50;;;;;;;3.45;0.90;;;;;;;-145.70;100.00;64261.84;5025264;28;20044;-80
2022/04/08 01:09:16;;;;;;;2.40;0.80;;;;;;;-145.70;100.00;64261.84;5027558;28;20033;-81
2022/04/08 01:11:42;;;;;;;4.28;0.80;;;;;;;-145.70;100.00;64261.84;5025959;28;20128;-81
2022/04/08 01:14:12;;;;;;;2.70;1.10;;;;;;;-145.70;100.00;64261.84;5025369;28;20056;-82
2022/04/08 01:16:39;;;;;;;1.92;0.70;;;;;;;-145.70;100.00;64261.84;5025844;28;20049;-81
2022/04/08 01:19:05;;;;;;;5.15;1.10;;;;;;;-145.70;100.00;64261.84;5024559;28;20662;-81
2022/04/08 01:21:31;;;;;;;2.00;0.82;;;;;;;-145.70;100.00;64261.84;5036514;28;20107;-80
2022/04/08 01:23:58;;;;;;;5.68;1.23;;;;;;;-145.70;100.00;64261.84;5040541;28;20050;-80
2022/04/08 01:26:24;;;;;;;6.43;1.45;;;;;;;-145.70;100.00;64261.84;5040302;28;20420;-80
2022/04/08 01:28:54;;;;;;;4.72;1.30;;;;;;;-145.70;100.00;64261.84;5042938;28;20045;-81
2022/04/08 01:31:19;;;;;;;4.32;1.00;;;;;;;-145.70;100.00;64261.84;5040432;28;20049;-81
2022/04/08 01:33:45;;;;;;;1.73;0.73;;;;;;;-145.70;100.00;64261.84;5030223;28;20592;-81
2022/04/08 01:36:11;;;;;;;6.15;1.10;;;;;;;-145.70;100.00;64261.84;5030075;28;20504;-82
2022/04/08 01:38:37;;;;;;;3.13;1.13;;;;;;;-145.70;100.00;64261.84;5029592;28;20049;-82
2022/04/08 01:41:02;;;;;;;7.63;1.42;;;;;;;-145.70;100.00;64261.84;5032964;28;20049;-81
2022/04/08 01:43:28;;;;;;;5.05;1.27;;;;;;;-145.70;100.00;64261.84;5028044;28;20134;-81
2022/04/08 01:45:53;;;;;;;3.15;0.93;;;;;;;-145.70;100.00;64261.84;5027430;28;20041;-80
2022/04/08 01:48:18;;;;;;;5.10;1.30;;;;;;;-145.70;100.00;64261.84;5044545;28;20041;-82
2022/04/08 01:50:44;;;;;;;4.63;1.02;;;;;;;-145.70;100.00;64261.84;5027829;28;20048;-81
2022/04/08 01:53:09;;;;;;;4.05;0.82;;;;;;;-145.70;100.00;64261.84;5028315;28;20037;-81
2022/04/08 01:55:34;;;;;;;3.67;0.88;;;;;;;-145.70;100.00;64261.84;5028474;28;20143;-81
2022/04/08 01:58:02;;;;;;;7.00;1.77;;;;;;;-145.70;100.00;64261.84;5028565;28;20059;-80
2022/04/08 02:00:28;;;;;;;4.60;0.90;;;;;;;-145.70;100.00;64261.84;5025439;28;20060;-81
2022/04/08 02:02:53;;;;;;;5.13;1.20;;;;;;;-145.70;100.00;64261.84;5030115;28;20069;-81
2022/04/08 02:05:18;;;;;;;3.47;1.23;;;;;;;-145.70;100.00;64261.84;5027366;28;20041;-81
2022/04/08 02:07:44;;;;;;;5.63;1.35;;;;;;;-145.70;100.00;64261.84;5030006;28;20041;-80
2022/04/08 02:10:10;;;;;;;4.00;1.17;;;;;;;-145.70;100.00;64261.84;5026658;28;20071;-80
2022/04/08 02:12:35;;;;;;;2.83;0.52;;;;;;;-145.70;100.00;64261.84;5027255;28;20559;-81
2022/04/08 02:15:01;;;;;;;4.55;1.67;;;;;;;-145.70;100.00;64261.84;5026367;28;20046;-80
2022/04/08 02:17:28;;;;;;;7.75;1.88;;;;;;;-145.70;100.00;64261.84;5027684;28;20700;-81
2022/04/08 02:19:54;;;;;;;6.95;1.73;;;;;;;-145.70;100.00;64261.84;5024581;28;20095;-81
2022/04/08 02:22:20;;;;;;;7.10;1.20;;;;;;;-145.70;100.00;64261.84;5024846;28;20041;-81
2022/04/08 02:24:46;;;;;;;8.27;1.58;;;;;;;-145.70;100.00;64261.84;5026325;28;20042;-82
2022/04/08 02:27:12;;;;;;;6.85;1.23;;;;;;;-145.70;100.00;64261.84;5025114;28;20049;-82
2022/04/08 02:29:37;;;;;;;6.45;1.80;;;;;;;-145.70;100.00;64261.84;5028735;28;20045;-81
2022/04/08 02:32:04;;;;;;;8.05;1.63;;;;;;;-145.70;100.00;64261.84;5029093;28;20045;-82
2022/04/08 02:34:29;;;;;;;3.28;1.23;;;;;;;-145.70;100.00;64261.84;5026675;28;20049;-81
2022/04/08 02:36:55;;;;;;;6.68;1.55;;;;;;;-145.70;100.00;64261.84;5027611;28;20044;-81
2022/04/08 02:39:20;;;;;;;8.52;1.45;;;;;;;-145.70;100.00;64261.84;5027517;28;20049;-81
2022/04/08 02:41:45;;;;;;;8.43;2.25;;;;;;;-145.70;100.00;64261.84;5025917;28;20045;-81
2022/04/08 02:44:11;;;;;;;6.53;1.70;;;;;;;-145.70;100.00;64261.84;5041395;28;20127;-82
2022/04/08 02:46:36;;;;;;;7.57;1.88;;;;;;;-145.70;100.00;64261.84;5030348;28;20045;-81
2022/04/08 02:49:01;;;;;;;7.45;1.55;;;;;;;-145.70;100.00;64261.84;5026797;28;20037;-82
2022/04/08 02:51:28;;;;;;;13.95;2.03;;;;;;;-145.70;100.00;64261.84;5025946;28;20054;-81
2022/04/08 02:53:54;;;;;;;8.82;2.00;;;;;;;-145.70;100.00;64261.84;5027735;28;20048;-82
2022/04/08 02:56:19;;;;;;;7.00;1.50;;;;;;;-145.70;100.00;64261.84;5027749;28;20049;-81
2022/04/08 02:58:48;;;;;;;10.50;1.95;;;;;;;-145.70;100.00;64261.84;5027275;28;20060;-80
2022/04/08 03:01:14;;;;;;;5.22;1.50;;;;;;;-145.70;100.00;64261.84;5027251;28;20037;-81
2022/04/08 03:03:39;;;;;;;8.68;2.13;;;;;;;-145.70;100.00;64261.84;5025531;28;20044;-81
2022/04/08 03:06:05;;;;;;;7.55;2.28;;;;;;;-145.70;100.00;64261.84;5027356;28;20535;-81
2022/04/08 03:08:30;;;;;;;10.27;2.13;;;;;;;-145.70;100.00;64261.84;5027696;28;20500;-81
2022/04/08 03:10:57;;;;;;;11.73;2.45;;;;;;;-145.70;100.00;64261.84;5027653;28;20110;-81
2022/04/08 03:13:23;;;;;;;8.35;1.67;;;;;;;-145.70;100.00;64261.84;5024864;28;20045;-81
2022/04/08 03:15:49;;;;;;;7.47;1.88;;;;;;;-145.70;100.00;64261.84;5026579;28;20045;-81
2022/04/08 03:18:14;;;;;;;5.65;1.83;;;;;;;-145.70;100.00;64261.84;5026254;28;20479;-81
2022/04/08 03:20:39;;;;;;;11.20;2.88;;;;;;;-145.70;100.00;64261.84;5026358;28;20033;-81
2022/04/08 03:23:05;;;;;;;6.63;1.95;;;;;;;-145.70;100.00;64261.84;5026260;28;20069;-80
2022/04/08 03:25:30;;;;;;;7.55;2.28;;;;;;;-145.70;100.00;64261.84;5026652;28;20045;-81
2022/04/08 03:27:56;;;;;;;11.82;2.20;;;;;;;-145.70;100.00;64261.84;5025959;28;20037;-81
2022/04/08 03:30:21;;;;;;;9.80;2.10;;;;;;;-145.70;100.00;64261.84;5027923;28;20146;-81
2022/04/08 03:32:46;;;;;;;10.98;1.85;;;;;;;-145.70;100.00;64261.84;5025961;28;20087;-81
2022/04/08 03:35:12;;;;;;;11.93;2.33;;;;;;;-145.70;100.00;64261.84;5026546;28;20042;-79
2022/04/08 03:37:37;;;;;;;6.25;1.27;;;;;;;-145.70;100.00;64261.84;5023819;28;20052;-80
2022/04/08 03:40:03;;;;;;;8.07;1.25;;;;;;;-145.70;100.00;64261.84;5024139;28;20037;-82
2022/04/08 03:42:28;;;;;;;12.23;2.50;;;;;;;-145.70;100.00;64261.84;5027467;28;20060;-81
2022/04/08 03:44:54;;;;;;;10.95;2.10;;;;;;;-145.70;100.00;64261.84;5027306;28;20095;-81
2022/04/08 03:47:20;;;;;;;9.13;2.47;;;;;;;-145.70;100.00;64261.84;5029230;28;20030;-81
2022/04/08 03:49:46;;;;;;;9.98;1.73;;;;;;;-145.70;100.00;64261.84;5026285;28;20076;-81
2022/04/08 03:52:12;;;;;;;12.45;2.00;;;;;;;-145.70;100.00;64261.84;5024877;28;20180;-81
2022/04/08 03:54:38;;;;;;;12.50;2.08;;;;;;;-145.70;100.00;64261.84;5026987;28;20038;-82
2022/04/08 03:57:04;;;;;;;18.02;2.92;;;;;;;-145.70;100.00;64261.84;5028007;28;20091;-80
2022/04/08 03:59:29;;;;;;;12.60;2.50;;;;;;;-145.70;100.00;64261.84;5029710;28;20038;-81
2022/04/08 04:01:54;;;;;;;9.98;2.72;;;;;;;-145.70;100.00;64261.84;5031449;28;20095;-81
2022/04/08 04:04:20;;;;;;;10.65;1.75;;;;;;;-145.70;100.00;64261.84;5031040;28;20075;-80
2022/04/08 04:06:45;;;;;;;11.55;2.30;;;;;;;-145.70;100.00;64261.84;5027265;28;20096;-81
2022/04/08 04:09:11;;;;;;;11.95;1.88;;;;;;;-145.70;100.00;64261.84;5030739;28;20451;-81
2022/04/08 04:11:36;;;;;;;7.55;1.38;;;;;;;-145.70;100.00;64261.84;5029991;28;20053;-81
2022/04/08 04:14:02;;;;;;;11.18;2.10;;;;;;;-145.70;100.00;64261.84;5029369;28;20045;-82
2022/04/08 04:16:27;;;;;;;15.40;2.40;;;;;;;-145.70;100.00;64261.84;5027919;28;20081;-81
2022/04/08 04:18:53;;;;;;;10.73;1.80;;;;;;;-145.70;100.00;64261.84;5030808;28;20041;-81
2022/04/08 04:21:19;;;;;;;11.73;2.05;;;;;;;-145.70;100.00;64261.84;5031487;28;20549;-82
2022/04/08 04:23:44;;;;;;;8.95;2.42;;;;;;;-145.70;100.00;64261.84;5030000;28;20087;-81
2022/04/08 04:26:09;;;;;;;8.48;1.50;;;;;;;-145.70;100.00;64261.84;5032927;28;20033;-84
2022/04/08 04:28:35;;;;;;;7.20;1.92;;;;;;;-145.70;100.00;64261.84;5033169;28;20042;-81
2022/04/08 04:31:03;;;;;;;13.13;2.97;;;;;;;-145.70;100.00;64261.84;5030536;28;20037;-82
2022/04/08 04:33:29;;;;;;;7.80;2.35;;;;;;;-145.70;100.00;64261.84;5012826;28;20873;-81
2022/04/08 04:35:55;;;;;;;12.80;2.65;;;;;;;-145.70;100.00;64261.84;5027378;28;20056;-81
2022/04/08 04:38:21;;;;;;;17.98;4.63;;;;;;;-145.70;100.00;64261.84;5025298;28;20076;-82
2022/04/08 04:40:47;;;;;;;13.57;3.33;;;;;;;-145.70;100.00;64261.84;5043039;28;20060;-81
2022/04/08 04:43:12;;;;;;;9.68;1.90;;;;;;;-145.70;100.00;64261.84;5043861;28;20323;-82
2022/04/08 04:45:39;;;;;;;16.75;2.95;;;;;;;-145.70;100.00;64261.84;5032205;28;20735;-82
2022/04/08 04:48:08;;;;;;;10.90;2.30;;;;;;;-145.70;100.00;64261.84;5050596;28;20033;-81
2022/04/08 04:50:33;;;;;;;;;;;;;;;-145.70;100.00;64261.84;5051277;28;20037;-81
2022/04/08 04:52:59;;;;;;;9.63;2.85;;;;;;;-145.70;100.00;64261.84;5049449;28;19931;-82
2022/04/08 04:55:24;;;;;;;9.07;2.40;;;;;;;-145.70;100.00;64261.84;5053492;28;20120;-81
2022/04/08 04:57:50;;;;;;;12.40;1.88;;;;;;;-145.70;100.00;64261.84;5053361;28;20041;-82
2022/04/08 05:00:16;;;;;;;9.05;2.28;;;;;;;-145.70;100.00;64261.84;5053174;28;20041;-82
2022/04/08 05:02:43;;;;;;;10.23;2.45;;;;;;;-145.70;100.00;64261.84;5055209;28;20037;-82
2022/04/08 05:05:09;;;;;;;11.70;2.53;;;;;;;-145.70;100.00;64261.84;5047831;28;20041;-83
2022/04/08 05:07:34;;;;;;;9.85;2.80;;;;;;;-145.70;100.00;64261.84;5037048;28;20041;-83
2022/04/08 05:10:00;;;;;;;10.40;2.55;;;;;;;-145.70;100.00;64261.84;5036020;28;20034;-83
2022/04/08 05:12:26;;;;;;;12.90;2.70;;;;;;;-145.70;100.00;64261.84;5036896;28;20056;-83
2022/04/08 05:14:51;;;;;;;10.50;3.13;;;;;;;-145.70;100.00;64261.84;5038456;28;20045;-83
2022/04/08 05:17:16;;;;;;;11.38;3.08;;;;;;;-145.70;100.00;64261.84;5036329;28;20037;-83
2022/04/08 05:19:42;;;;;;;5.50;1.48;;;;;;;-145.70;100.00;64261.84;5037546;28;20532;-83
2022/04/08 05:22:07;;;;;;;8.07;2.22;;;;;;;-145.70;100.00;64261.84;5036004;28;20037;-83
2022/04/08 05:24:32;;;;;;;11.93;3.95;;;;;;;-145.70;100.00;64261.84;5036138;28;20034;-83
2022/04/08 05:26:58;;;;;;;10.07;3.10;;;;;;;-145.70;100.00;64261.84;5050738;28;20614;-83
2022/04/08 05:29:24;;;;;;;7.88;2.08;;;;;;;-145.70;100.00;64261.84;5033911;28;20659;-81
2022/04/08 05:31:49;;;;;;;8.32;2.53;;;;;;;-145.70;100.00;64261.84;5037379;28;20562;-84
2022/04/08 05:34:14;;;;;;;13.88;2.90;;;;;;;-145.70;100.00;64261.84;5033294;28;20053;-82
2022/04/08 05:36:40;;;;;;;8.10;3.00;;;;;;;-145.70;100.00;64261.84;5020391;28;20053;-82
2022/04/08 05:39:05;;;;;;;8.57;2.55;;;;;;;-145.70;100.00;64261.84;5031970;28;20693;-82
2022/04/08 05:41:30;;;;;;;10.45;2.40;;;;;;;-145.70;100.00;64261.84;5029664;28;20447;-82
2022/04/08 05:43:56;;;;;;;11.95;2.00;;;;;;;-145.70;100.00;64261.84;5029178;28;20045;-82
2022/04/08 05:46:21;;;;;;;9.27;2.63;;;;;;;-145.70;100.00;64261.84;5025995;28;20046;-83
2022/04/08 05:48:46;;;;;;;8.50;3.05;;;;;;;-145.70;100.00;64261.84;5012492;28;20136;-83
2022/04/08 05:51:12;;;;;;;10.43;3.30;;;;;;;-145.70;100.00;64261.84;5012067;28;20139;-83
2022/04/08 05:53:37;;;;;;;10.73;2.92;;;;;;;-145.70;100.00;64261.84;5027238;28;20177;-83
2022/04/08 05:56:03;;;;;;;10.43;2.13;;;;;;;-145.70;100.00;64261.84;5008520;28;20132;-83
2022/04/08 05:58:29;;;;;;;6.78;2.22;;;;;;;-145.70;100.00;64261.84;5029546;28;20053;-83
2022/04/08 06:00:54;;;;;;;7.88;2.80;;;;;;;-145.70;100.00;64261.84;5010454;28;20602;-83
2022/04/08 06:03:20;;;;;;;9.10;2.95;;;;;;;-145.70;100.00;64261.84;5029167;28;20072;-83
2022/04/08 06:05:45;;;;;;;12.48;3.22;;;;;;;-145.70;100.00;64261.84;5033448;28;20547;-83
2022/04/08 06:08:11;;;;;;;8.10;2.80;;;;;;;-145.70;100.00;64261.84;5031874;28;20400;-83
2022/04/08 06:10:37;;;;;;;11.10;3.40;;;;;;;-145.70;100.00;64261.84;5034124;28;20052;-83
2022/04/08 06:13:03;;;;;;;10.45;3.28;;;;;;;-145.70;100.00;64261.84;5032821;28;20045;-83
2022/04/08 06:15:29;;;;;;;9.63;3.35;;;;;;;-145.70;100.00;64261.84;5032859;28;20049;-83
2022/04/08 06:17:55;;;;;;;12.18;3.50;;;;;;;-145.70;100.00;64261.84;5027451;28;20045;-83
2022/04/08 06:20:21;;;;;;;14.20;3.47;;;;;;;-145.70;100.00;64261.84;5033025;28;20056;-83
2022/04/08 06:22:48;;;;;;;9.82;2.83;;;;;;;-145.70;100.00;64261.84;5032520;28;20064;-83
2022/04/08 06:25:24;;;;;;;12.55;3.30;;;;;;;-145.70;100.00;64261.84;5033915;28;20053;-83
2022/04/08 06:28:02;;;;;;;11.30;3.28;;;;;;;-145.70;100.00;64261.84;5034092;28;20049;-83
2022/04/08 06:30:28;;;;;;;8.15;2.78;;;;;;;-145.70;100.00;64261.84;5049772;28;20045;-83
2022/04/08 06:32:54;;;;;;;8.00;3.25;;;;;;;-145.70;100.00;64261.84;5030457;28;20175;-84
2022/04/08 06:35:20;;;;;;;10.90;3.55;;;;;;;-145.70;100.00;64261.84;5028002;28;20106;-83
2022/04/08 06:37:45;;;;;;;14.63;3.20;;;;;;;-145.70;100.00;64261.84;5029585;28;20094;-84
2022/04/08 06:40:11;;;;;;;10.38;2.95;;;;;;;-145.70;100.00;64261.84;5030349;28;20049;-84
2022/04/08 06:42:38;;;;;;;8.18;2.85;;;;;;;-145.70;100.00;64261.84;5026702;28;20053;-84
2022/04/08 06:45:05;;;;;;;7.07;2.95;;;;;;;-145.70;100.00;64261.84;5029646;28;20045;-84
2022/04/08 06:47:30;;;;;;;10.25;2.70;;;;;;;-145.70;100.00;64261.84;5030841;28;20297;-83
2022/04/08 06:49:55;;;;;;;8.13;3.38;;;;;;;-145.70;100.00;64261.84;5034619;28;20079;-84
2022/04/08 06:52:21;;;;;;;9.23;3.10;;;;;;;-145.70;100.00;64261.84;5031723;28;20093;-84
2022/04/08 06:54:46;;;;;;;7.47;3.25;;;;;;;-145.70;100.00;64261.84;5034379;28;20037;-84
2022/04/08 06:57:12;;;;;;;11.90;3.60;;;;;;;-145.70;100.00;64261.84;5032472;28;20528;-84
2022/04/08 06:59:40;;;;;;;9.60;2.53;;;;;;;-145.70;100.00;64261.84;5030871;28;20578;-84
2022/04/08 07:02:05;;;;;;;11.32;2.78;;;;;;;-145.70;100.00;64261.84;5030077;28;20033;-84
2022/04/08 07:04:30;;;;;;;12.63;2.83;;;;;;;-145.70;100.00;64261.84;5029509;28;20044;-83
2022/04/08 07:06:56;;;;;;;9.60;3.53;;;;;;;-145.70;100.00;64261.84;5031573;28;20076;-84
2022/04/08 07:09:21;;;;;;;11.35;3.45;;;;;;;-145.70;100.00;64261.84;5031541;28;20769;-84
2022/04/08 07:11:47;;;;;;;11.55;3.85;;;;;;;-145.70;100.00;64261.84;5033999;28;20045;-84
2022/04/08 07:14:13;;;;;;;9.88;3.75;;;;;;;-145.70;100.00;64261.84;5028738;28;20037;-83
2022/04/08 07:16:47;;;;;;;9.32;2.85;;;;;;;-145.70;100.00;64261.84;5031497;28;20567;-83
2022/04/08 07:19:12;;;;;;;11.90;4.30;;;;;;;-145.70;100.00;64261.84;5025615;28;20033;-83
2022/04/08 07:21:38;;;;;;;12.38;3.78;;;;;;;-145.70;100.00;64261.84;5028837;28;20048;-83
2022/04/08 07:24:03;;;;;;;13.45;3.72;;;;;;;-145.70;100.00;64261.84;5030752;28;20025;-83
2022/04/08 07:26:29;;;;;;;11.55;3.83;;;;;;;-145.70;100.00;64261.84;5030431;28;20045;-83
2022/04/08 07:28:55;;;;;;;10.50;3.97;;;;;;;-145.70;100.00;64261.84;5029416;28;20064;-84
2022/04/08 07:31:21;;;;;;;10.23;3.65;;;;;;;-145.70;100.00;64261.84;5030068;28;20045;-84
2022/04/08 07:33:46;;;;;;;14.75;5.55;;;;;;;-145.70;100.00;64261.84;5029310;28;20053;-84
2022/04/08 07:36:12;;;;;;;9.20;3.63;;;;;;;-145.70;100.00;64261.84;5030641;28;20047;-83
2022/04/08 07:38:37;;;;;;;8.68;3.75;;;;;;;-145.70;100.00;64261.84;5031572;28;20131;-83
2022/04/08 07:41:02;;;;;;;13.50;3.75;;;;;;;-145.70;100.00;64261.84;5031016;28;20029;-83
2022/04/08 07:43:28;;;;;;;10.38;3.17;;;;;;;-145.70;100.00;64261.84;5028341;28;20131;-84
2022/04/08 07:45:53;;;;;;;10.32;3.85;;;;;;;-145.70;100.00;64261.84;5031352;28;20064;-84
2022/04/08 07:48:19;;;;;;;11.40;4.10;;;;;;;-145.70;100.00;64261.84;5029175;28;20112;-83
2022/04/08 07:50:44;;;;;;;8.45;3.20;;;;;;;-145.70;100.00;64261.84;5030413;28;20037;-83
2022/04/08 07:53:09;;;;;;;12.48;3.13;;;;;;;-145.70;100.00;64261.84;5030090;28;20114;-84
2022/04/08 07:55:38;;;;;;;11.95;4.20;;;;;;;-145.70;100.00;64261.84;5030628;28;20029;-84
2022/04/08 07:58:06;;;;;;;9.27;3.17;;;;;;;-145.70;100.00;64261.84;5031344;28;20037;-83
2022/04/08 08:00:33;;;;;;;9.02;2.13;;;;;;;-145.70;100.00;64261.84;5027022;28;20049;-83
2022/04/08 08:02:59;;;;;;;7.28;2.40;;;;;;;-145.70;100.00;64261.84;5029451;28;20103;-83
2022/04/08 08:05:25;;;;;;;7.57;3.03;;;;;;;-145.70;100.00;64261.84;5029678;28;20041;-84
2022/04/08 08:07:57;;;;;;;7.95;2.95;;;;;;;-145.70;100.00;64261.84;5030783;28;20046;-84
2022/04/08 08:10:30;;;;;;;8.95;3.05;;;;;;;-145.70;100.00;64261.84;5030974;28;20103;-83
2022/04/08 08:12:58;;;;;;;8.65;2.55;;;;;;;-145.70;100.00;64261.84;5029463;28;20048;-84
2022/04/08 08:15:24;;;;;;;11.98;3.15;;;;;;;-145.70;100.00;64261.84;5027353;28;20048;-84
2022/04/08 08:17:51;;;;;;;7.05;2.50;;;;;;;-145.70;100.00;64261.84;5030030;28;20113;-83
2022/04/08 08:20:18;;;;;;;9.32;2.92;;;;;;;-145.70;100.00;64261.84;5030097;28;20029;-83
2022/04/08 08:22:44;;;;;;;11.20;2.50;;;;;;;-145.70;100.00;64261.84;5030493;28;20064;-84
2022/04/08 08:25:11;;;;;;;7.88;3.22;;;;;;;-145.70;100.00;64261.84;5031246;28;20079;-84
2022/04/08 08:27:43;;;;;;;7.97;2.75;;;;;;;-145.70;100.00;64261.84;5029943;28;20095;-83
2022/04/08 08:30:11;;;;;;;9.30;2.40;;;;;;;-145.70;100.00;64261.84;5029079;28;20511;-83
2022/04/08 08:32:42;;;;;;;7.30;2.60;;;;;;;-145.70;100.00;64261.84;5025548;28;20049;-83
2022/04/08 08:35:09;;;;;;;9.73;2.22;;;;;;;-145.70;100.00;64261.84;5027749;28;20052;-84
2022/04/08 08:37:35;;;;;;;7.72;2.50;;;;;;;-145.70;100.00;64261.84;5025664;28;20470;-83
2022/04/08 08:40:04;;;;;;;5.90;2.33;;;;;;;-145.70;100.00;64261.84;5027195;28;20045;-84
2022/04/08 08:42:31;;;;;;;8.70;2.72;;;;;;;-145.70;100.00;64261.84;5025166;28;20507;-84
2022/04/08 08:44:57;;;;;;;10.00;2.85;;;;;;;-145.70;100.00;64261.84;5025683;28;20052;-84
2022/04/08 08:47:25;;;;;;;11.50;2.53;;;;;;;-145.70;100.00;64261.84;5026606;28;20049;-83
2022/04/08 08:49:50;;;;;;;8.40;2.67;;;;;;;-145.70;100.00;64261.84;5026533;28;20421;-83
2022/04/08 08:52:19;;;;;;;10.20;2.35;;;;;;;-145.70;100.00;64261.84;5026477;28;20052;-83
2022/04/08 08:54:46;;;;;;;6.05;2.10;;;;;;;-145.70;100.00;64261.84;5039772;28;20057;-84
2022/04/08 08:57:17;;;;;;;9.65;2.55;;;;;;;-145.70;100.00;64261.84;5025409;28;20041;-83
2022/04/08 08:59:46;;;;;;;8.68;2.40;;;;;;;-145.70;100.00;64261.84;5030385;28;20408;-84
2022/04/08 09:02:16;;;;;;;;;;;;;;;-145.70;100.00;64261.84;5030592;28;20382;-83
2022/04/08 09:04:42;;;;;;;11.82;2.22;;;;;;;-145.70;100.00;64261.84;5033372;28;20316;-83
2022/04/08 09:07:28;;;;;;;7.95;2.13;;;;;;;-145.70;100.00;64261.84;5036118;28;20040;-84
2022/04/08 09:09:56;;;;;;;8.70;2.10;;;;;;;-145.70;100.00;64261.84;5046514;28;20107;-84
2022/04/08 09:12:26;;;;;;;6.65;2.25;;;;;;;-145.70;100.00;64261.84;5032869;28;20099;-84
2022/04/08 09:14:53;;;;;;;7.13;2.15;;;;;;;-145.70;100.00;64261.84;5036056;28;20052;-83
2022/04/08 09:17:21;;;;;;;6.13;2.47;;;;;;;-145.70;100.00;64261.84;5034038;28;20037;-85
2022/04/08 09:19:50;;;;;;;8.00;2.20;;;;;;;-145.70;100.00;64261.84;5029833;28;20132;-84
2022/04/08 09:22:17;;;;;;;8.82;2.40;;;;;;;-145.70;100.00;64261.84;5041371;28;20041;-84
2022/04/08 09:24:42;;;;;;;5.40;1.88;;;;;;;-145.70;100.00;64261.84;5031926;28;20125;-83
2022/04/08 09:27:09;;;;;;;6.03;2.28;;;;;;;-145.70;100.00;64261.84;5028342;28;20128;-83
2022/04/08 09:29:35;;;;;;;8.40;2.15;;;;;;;-145.70;100.00;64261.84;5029660;28;20046;-84
2022/04/08 09:32:08;;;;;;;6.50;2.20;;;;;;;-145.70;100.00;64261.84;5029259;28;20128;-84
2022/04/08 09:34:34;;;;;;;6.97;1.92;;;;;;;-145.70;100.00;64261.84;5028999;28;20049;-83
2022/04/08 09:37:10;;;;;;;12.07;2.30;;;;;;;-145.70;100.00;64261.84;5027003;28;20139;-84
2022/04/08 09:39:37;;;;;;;8.30;1.70;;;;;;;-145.70;100.00;64261.84;5025410;28;20042;-83
2022/04/08 09:42:06;;;;;;;6.97;2.20;;;;;;;-145.70;100.00;64261.84;5029233;28;20115;-84
2022/04/08 09:44:35;;;;;;;7.40;2.45;;;;;;;-145.70;100.00;64261.84;5031431;28;20109;-84
2022/04/08 09:47:01;;;;;;;6.13;1.80;;;;;;;-145.70;100.00;64261.84;5029799;28;20084;-84
2022/04/08 09:49:26;;;;;;;5.10;1.80;;;;;;;-145.70;100.00;64261.84;5027885;28;20080;-83
2022/04/08 09:51:54;;;;;;;7.50;1.80;;;;;;;-145.70;100.00;64261.84;5028586;28;20049;-84
2022/04/08 09:54:21;;;;;;;9.87;2.63;;;;;;;-145.70;100.00;64261.84;5027795;28;20041;-84
2022/04/08 09:56:47;;;;;;;8.55;2.17;;;;;;;-145.70;100.00;64261.84;5029196;28;20619;-83
2022/04/08 09:59:16;;;;;;;5.70;2.33;;;;;;;-145.70;100.00;64261.84;5021648;28;20132;-83
2022/04/08 10:01:46;;;;;;;;;;;;;;;-145.70;100.00;64261.84;5030770;28;20041;-84
2022/04/08 10:04:12;;;;;;;6.38;1.83;;;;;;;-145.70;100.00;64261.84;5027578;28;19924;-84
2022/04/08 10:06:39;;;;;;;6.40;2.75;;;;;;;-145.70;100.00;64261.84;5028354;28;20044;-84
2022/04/08 10:09:10;;;;;;;6.22;2.10;;;;;;;-145.70;100.00;64261.84;5027643;28;20061;-84
2022/04/08 10:12:07;;;;;;;9.80;2.63;;;;;;;-145.70;100.00;64261.84;5026394;28;20056;-84
2022/04/08 10:14:54;;;;;;;8.05;2.95;;;;;;;-145.70;100.00;64261.84;5013112;28;20737;-84
2022/04/08 10:17:19;;;;;;;7.15;2.35;;;;;;;-145.70;100.00;64261.84;5031409;28;20048;-84
2022/04/08 10:19:45;;;;;;;8.90;3.47;;;;;;;-145.70;100.00;64261.84;5028766;28;20041;-84
2022/04/08 10:22:19;;;;;;;5.38;1.70;;;;;;;-145.70;100.00;64261.84;5026809;28;20045;-84
2022/04/08 10:24:52;;;;;;;7.55;1.98;;;;;;;-145.70;100.00;64261.84;5010255;28;20048;-84
2022/04/08 10:27:31;;;;;;;5.03;2.10;;;;;;;-145.70;100.00;64261.84;5028460;28;20113;-84
2022/04/08 10:29:56;;;;;;;4.67;1.63;;;;;;;-145.70;100.00;64261.84;5027447;28;20038;-84
2022/04/08 10:32:21;;;;;;;8.77;2.33;;;;;;;-145.70;100.00;64261.84;5027988;28;20064;-84
2022/04/08 10:34:47;;;;;;;7.50;2.88;;;;;;;-145.70;100.00;64261.84;5027561;28;20110;-84
2022/04/08 10:37:21;;;;;;;7.43;3.08;;;;;;;-145.70;100.00;64261.84;5033165;28;20037;-84
2022/04/08 10:39:56;;;;;;;9.35;2.53;;;;;;;-145.70;100.00;64261.84;5037404;28;20041;-83
2022/04/08 10:42:22;;;;;;;9.07;3.47;;;;;;;-145.70;100.00;64261.84;5041371;28;20060;-83
2022/04/08 10:44:48;;;;;;;7.35;3.28;;;;;;;-145.70;100.00;64261.84;5042796;28;20321;-83
2022/04/08 10:47:19;;;;;;;7.20;2.95;;;;;;;-145.70;100.00;64261.84;5037846;28;20045;-83
2022/04/08 10:49:50;;;;;;;5.95;2.00;;;;;;;-145.70;100.00;64261.84;5028362;28;20304;-83
2022/04/08 10:52:18;;;;;;;6.80;3.10;;;;;;;-145.70;100.00;64261.84;5029468;28;20107;-84
2022/04/08 10:54:44;;;;;;;6.75;3.08;;;;;;;-145.70;100.00;64261.84;5033854;28;20137;-83
2022/04/08 10:57:09;;;;;;;7.00;2.83;;;;;;;-145.70;100.00;64261.84;5032395;28;20076;-84
2022/04/08 10:59:35;;;;;;;9.85;2.45;;;;;;;-145.70;100.00;64261.84;5026776;28;20066;-84
2022/04/08 11:02:05;;;;;;;7.32;2.53;;;;;;;-145.70;100.00;64261.84;5027306;28;20799;-83
2022/04/08 11:04:31;;;;;;;7.65;2.15;;;;;;;-145.70;100.00;64261.84;5027185;28;20053;-83